createdAt,value
2023-10-23T00:00:14.357Z,100.00
2023-10-23T00:03:06.748Z,100.00
2023-10-23T00:05:38.829Z,100.00
2023-10-23T00:08:11.175Z,100.00
2023-10-23T00:10:43.570Z,100.00
2023-10-23T00:13:15.367Z,100.00
2023-10-23T00:15:47.151Z,100.00
2023-10-23T00:18:19.049Z,100.00
2023-10-23T00:20:51.271Z,100.00
2023-10-23T00:23:23.058Z,100.00
2023-10-23T00:25:55.118Z,100.00
2023-10-23T00:28:26.859Z,100.00
2023-10-23T00:30:59.179Z,100.00
2023-10-23T00:33:31.387Z,100.00
2023-10-23T00:36:03.323Z,100.00
2023-10-23T00:38:35.726Z,100.00
2023-10-23T00:41:07.597Z,100.00
2023-10-23T00:43:40.817Z,100.00
2023-10-23T00:46:16.013Z,100.00
2023-10-23T00:48:49.824Z,100.00
2023-10-23T00:51:21.813Z,100.00
2023-10-23T00:53:54.997Z,100.00
2023-10-23T00:56:27.280Z,100.00
2023-10-23T00:58:59.635Z,100.00
2023-10-23T01:01:33.731Z,100.00
2023-10-23T01:04:06.673Z,100.00
2023-10-23T01:06:37.136Z,100.00
2023-10-23T01:09:09.987Z,100.00
2023-10-23T01:11:40.231Z,100.00
2023-10-23T01:14:12.305Z,100.00
2023-10-23T01:16:44.128Z,100.00
2023-10-23T01:19:16.055Z,100.00
2023-10-23T01:21:48.942Z,100.00
2023-10-23T01:24:23.973Z,100.00
2023-10-23T01:26:56.912Z,100.00
2023-10-23T01:29:28.680Z,100.00
2023-10-23T01:32:00.496Z,100.00
2023-10-23T01:34:32.720Z,100.00
2023-10-23T01:37:04.633Z,100.00
2023-10-23T01:39:36.465Z,100.00
2023-10-23T01:42:09.285Z,100.00
2023-10-23T01:44:41.147Z,100.00
2023-10-23T01:47:13.077Z,100.00
2023-10-23T01:49:44.885Z,100.00
2023-10-23T01:52:16.964Z,100.00
2023-10-23T01:54:51.941Z,100.00
2023-10-23T01:57:24.183Z,100.00
2023-10-23T02:00:04.494Z,100.00
2023-10-23T02:02:44.282Z,100.00
2023-10-23T02:05:16.399Z,100.00
2023-10-23T02:07:48.175Z,100.00
2023-10-23T02:10:22.203Z,100.00
2023-10-23T02:12:54.779Z,100.00
2023-10-23T02:15:27.062Z,100.00
2023-10-23T02:17:59.326Z,100.00
2023-10-23T02:20:31.296Z,100.00
2023-10-23T02:23:03.149Z,100.00
2023-10-23T02:25:34.979Z,100.00
2023-10-23T02:28:07.214Z,100.00
2023-10-23T02:30:40.303Z,100.00
2023-10-23T02:33:12.164Z,100.00
2023-10-23T02:35:44.567Z,100.00
2023-10-23T02:38:16.545Z,100.00
2023-10-23T02:40:55.487Z,100.00
2023-10-23T02:43:27.669Z,100.00
2023-10-23T02:46:03.776Z,100.00
2023-10-23T02:48:35.893Z,100.00
2023-10-23T02:51:07.796Z,100.00
2023-10-23T02:53:40.212Z,100.00
2023-10-23T02:56:15.112Z,100.00
2023-10-23T02:58:46.960Z,100.00
2023-10-23T03:01:21.599Z,100.00
2023-10-23T03:03:54.213Z,100.00
2023-10-23T03:06:26.190Z,100.00
2023-10-23T03:08:58.769Z,100.00
2023-10-23T03:11:32.248Z,100.00
2023-10-23T03:14:04.993Z,100.00
2023-10-23T03:16:37.697Z,100.00
2023-10-23T03:19:09.455Z,100.00
2023-10-23T03:21:41.237Z,100.00
2023-10-23T03:24:12.541Z,100.00
2023-10-23T03:26:44.841Z,100.00
2023-10-23T03:29:17.870Z,100.00
2023-10-23T03:31:49.777Z,100.00
2023-10-23T03:34:21.695Z,100.00
2023-10-23T03:36:54.105Z,100.00
2023-10-23T03:39:26.008Z,100.00
2023-10-23T03:41:57.889Z,100.00
2023-10-23T03:44:29.819Z,100.00
2023-10-23T03:47:01.692Z,100.00
2023-10-23T03:49:33.703Z,100.00
2023-10-23T03:52:05.855Z,100.00
2023-10-23T03:54:38.390Z,100.00
2023-10-23T03:57:10.216Z,100.00
2023-10-23T03:59:45.305Z,100.00
2023-10-23T04:02:17.319Z,100.00
2023-10-23T04:04:49.189Z,100.00
2023-10-23T04:07:21.461Z,100.00
2023-10-23T04:09:53.563Z,100.00
2023-10-23T04:12:25.410Z,100.00
2023-10-23T04:14:57.467Z,100.00
2023-10-23T04:17:29.287Z,100.00
2023-10-23T04:20:01.181Z,100.00
2023-10-23T04:22:33.023Z,100.00
2023-10-23T04:25:05.247Z,100.00
2023-10-23T04:27:37.496Z,100.00
2023-10-23T04:30:12.129Z,100.00
2023-10-23T04:32:44.010Z,100.00
2023-10-23T04:35:15.918Z,100.00
2023-10-23T04:37:47.716Z,100.00
2023-10-23T04:40:19.708Z,100.00
2023-10-23T04:42:51.741Z,100.00
2023-10-23T04:45:23.650Z,100.00
2023-10-23T04:47:55.484Z,100.00
2023-10-23T04:50:27.296Z,100.00
2023-10-23T04:53:00.591Z,100.00
2023-10-23T04:55:36.647Z,100.00
2023-10-23T04:58:09.197Z,100.00
2023-10-23T05:00:41.629Z,100.00
2023-10-23T05:03:13.735Z,100.00
2023-10-23T05:05:50.261Z,100.00
2023-10-23T05:08:22.150Z,100.00
2023-10-23T05:10:53.915Z,100.00
2023-10-23T05:13:26.416Z,100.00
2023-10-23T05:16:05.768Z,100.00
2023-10-23T05:18:37.934Z,100.00
2023-10-23T05:21:11.894Z,100.00
2023-10-23T05:23:44.119Z,100.00
2023-10-23T05:26:16.381Z,100.00
2023-10-23T05:28:49.050Z,100.00
2023-10-23T05:31:21.639Z,100.00
2023-10-23T05:33:53.627Z,100.00
2023-10-23T05:36:25.596Z,100.00
2023-10-23T05:38:57.436Z,100.00
2023-10-23T05:41:29.239Z,100.00
2023-10-23T05:44:01.218Z,100.00
2023-10-23T05:46:33.339Z,100.00
2023-10-23T05:49:05.215Z,100.00
2023-10-23T05:51:37.667Z,100.00
2023-10-23T05:54:10.871Z,100.00
2023-10-23T05:56:42.844Z,100.00
2023-10-23T05:59:14.847Z,100.00
2023-10-23T06:01:46.766Z,100.00
2023-10-23T06:04:18.763Z,100.00
2023-10-23T06:06:50.878Z,100.00
2023-10-23T06:09:22.813Z,100.00
2023-10-23T06:11:54.733Z,100.00
2023-10-23T06:14:26.549Z,100.00
2023-10-23T06:16:58.786Z,100.00
2023-10-23T06:19:32.702Z,100.00
2023-10-23T06:22:04.763Z,100.00
2023-10-23T06:24:37.042Z,100.00
2023-10-23T06:27:08.937Z,100.00
2023-10-23T06:29:40.832Z,100.00
2023-10-23T06:32:14.467Z,100.00
2023-10-23T06:34:46.662Z,100.00
2023-10-23T06:37:18.511Z,100.00
2023-10-23T06:39:50.522Z,100.00
2023-10-23T06:42:22.278Z,100.00
2023-10-23T06:44:54.832Z,100.00
2023-10-23T06:47:26.804Z,100.00
2023-10-23T06:49:59.966Z,100.00
2023-10-23T06:52:31.863Z,100.00
2023-10-23T06:55:04.267Z,100.00
2023-10-23T06:57:36.302Z,100.00
2023-10-23T07:00:11.235Z,100.00
2023-10-23T07:02:43.225Z,100.00
2023-10-23T07:05:15.367Z,100.00
2023-10-23T07:07:47.233Z,100.00
2023-10-23T07:10:19.201Z,100.00
2023-10-23T07:12:51.081Z,100.00
2023-10-23T07:15:22.944Z,100.00
2023-10-23T07:17:55.294Z,100.00
2023-10-23T07:20:27.812Z,100.00
2023-10-23T07:23:00.442Z,100.00
2023-10-23T07:25:32.455Z,100.00
2023-10-23T07:28:04.218Z,100.00
2023-10-23T07:30:37.029Z,100.00
2023-10-23T07:33:08.937Z,100.00
2023-10-23T07:35:52.518Z,100.00
2023-10-23T07:38:25.285Z,100.00
2023-10-23T07:40:57.201Z,100.00
2023-10-23T07:43:29.660Z,100.00
2023-10-23T07:46:15.722Z,100.00
2023-10-23T07:48:49.158Z,100.00
2023-10-23T07:51:21.115Z,100.00
2023-10-23T07:53:53.020Z,100.00
2023-10-23T07:56:25.420Z,100.00
2023-10-23T07:58:58.070Z,100.00
2023-10-23T08:01:28.658Z,100.00
2023-10-23T08:04:00.655Z,100.00
2023-10-23T08:06:32.872Z,100.00
2023-10-23T08:09:05.604Z,100.00
2023-10-23T08:11:37.657Z,100.00
2023-10-23T08:14:09.584Z,100.00
2023-10-23T08:16:41.558Z,100.00
2023-10-23T08:19:14.149Z,100.00
2023-10-23T08:21:46.237Z,100.00
2023-10-23T08:24:18.358Z,100.00
2023-10-23T08:26:51.430Z,100.00
2023-10-23T08:29:23.305Z,100.00
2023-10-23T08:31:55.486Z,100.00
2023-10-23T08:34:27.629Z,100.00
2023-10-23T08:36:59.706Z,100.00
2023-10-23T08:39:31.772Z,100.00
2023-10-23T08:42:03.002Z,100.00
2023-10-23T08:44:35.036Z,100.00
2023-10-23T08:47:07.642Z,100.00
2023-10-23T08:49:39.812Z,100.00
2023-10-23T08:52:13.792Z,100.00
2023-10-23T08:54:48.171Z,100.00
2023-10-23T08:57:22.021Z,100.00
2023-10-23T08:59:53.924Z,100.00
2023-10-23T09:02:26.569Z,100.00
2023-10-23T09:04:58.831Z,100.00
2023-10-23T09:07:31.007Z,100.00
2023-10-23T09:10:05.054Z,100.00
2023-10-23T09:12:40.625Z,100.00
2023-10-23T09:15:21.816Z,100.00
2023-10-23T09:17:54.726Z,100.00
2023-10-23T09:20:28.789Z,100.00
2023-10-23T09:23:01.846Z,100.00
2023-10-23T09:25:33.794Z,100.00
2023-10-23T09:28:13.721Z,100.00
2023-10-23T09:30:46.640Z,100.00
2023-10-23T09:33:18.669Z,100.00
2023-10-23T09:35:51.405Z,100.00
2023-10-23T09:38:24.237Z,100.00
2023-10-23T09:40:58.259Z,100.00
2023-10-23T09:43:30.321Z,100.00
2023-10-23T09:46:04.442Z,100.00
2023-10-23T09:48:39.462Z,100.00
2023-10-23T09:51:16.380Z,100.00
2023-10-23T09:53:51.346Z,100.00
2023-10-23T09:56:24.801Z,100.00
2023-10-23T09:59:02.304Z,100.00
2023-10-23T10:01:42.044Z,100.00
2023-10-23T10:04:23.859Z,100.00
2023-10-23T10:07:01.218Z,99.96
2023-10-23T10:09:34.352Z,98.23
2023-10-23T10:12:08.424Z,98.75
2023-10-23T10:14:42.921Z,98.61
2023-10-23T10:17:17.052Z,97.58
2023-10-23T10:19:49.418Z,97.45
2023-10-23T10:22:29.806Z,96.32
2023-10-23T10:25:02.036Z,96.41
2023-10-23T10:27:34.840Z,96.67
2023-10-23T10:30:29.928Z,97.25
2023-10-23T10:34:25.405Z,98.68
2023-10-23T10:36:00.527Z,97.44
2023-10-23T10:38:33.814Z,96.32
2023-10-23T10:41:07.320Z,96.04
2023-10-23T10:43:40.588Z,96.12
2023-10-23T10:46:21.301Z,95.81
2023-10-23T10:48:56.391Z,95.23
2023-10-23T10:51:30.426Z,95.68
2023-10-23T10:54:04.875Z,95.79
2023-10-23T10:56:38.046Z,95.30
2023-10-23T10:59:09.944Z,95.00
2023-10-23T11:01:42.524Z,94.11
2023-10-23T11:04:14.960Z,95.08
2023-10-23T11:06:47.938Z,95.85
2023-10-23T11:09:25.370Z,94.59
2023-10-23T11:12:00.817Z,92.70
2023-10-23T11:14:33.671Z,91.79
2023-10-23T11:17:07.180Z,91.05
2023-10-23T11:19:39.771Z,90.54
2023-10-23T11:22:14.405Z,90.82
2023-10-23T11:24:47.341Z,90.52
2023-10-23T11:27:17.866Z,90.41
2023-10-23T11:29:51.186Z,90.78
2023-10-23T11:32:23.765Z,91.09
2023-10-23T11:34:54.265Z,92.06
2023-10-23T11:37:26.830Z,92.25
2023-10-23T11:40:00.212Z,91.30
2023-10-23T11:42:33.328Z,89.92
2023-10-23T11:45:05.652Z,88.47
2023-10-23T11:47:39.363Z,88.15
2023-10-23T11:50:14.071Z,87.06
2023-10-23T11:52:47.831Z,84.97
2023-10-23T11:55:22.447Z,85.42
2023-10-23T11:57:55.927Z,84.70
2023-10-23T12:00:29.230Z,84.02
2023-10-23T12:03:01.304Z,84.42
2023-10-23T12:05:33.740Z,84.62
2023-10-23T12:08:06.497Z,85.31
2023-10-23T12:10:39.654Z,86.32
2023-10-23T12:13:11.692Z,86.03
2023-10-23T12:15:44.212Z,85.23
2023-10-23T12:18:16.180Z,84.27
2023-10-23T12:20:48.737Z,83.51
2023-10-23T12:23:21.255Z,82.25
2023-10-23T12:25:54.053Z,80.77
2023-10-23T12:28:27.317Z,80.61
2023-10-23T12:31:00.099Z,80.23
2023-10-23T12:33:38.242Z,79.26
2023-10-23T12:36:11.388Z,76.64
2023-10-23T12:38:43.232Z,76.77
2023-10-23T12:41:15.668Z,78.03
2023-10-23T12:43:48.428Z,78.45
2023-10-23T12:46:21.289Z,79.04
2023-10-23T12:48:53.608Z,79.56
2023-10-23T12:51:27.644Z,80.32
2023-10-23T12:53:59.526Z,80.21
2023-10-23T12:56:32.964Z,80.46
2023-10-23T12:59:06.154Z,80.53
2023-10-23T13:01:38.146Z,80.66
2023-10-23T13:04:10.359Z,80.30
2023-10-23T13:06:42.452Z,79.58
2023-10-23T13:09:16.833Z,78.55
2023-10-23T13:11:49.238Z,77.40
2023-10-23T13:14:21.150Z,77.11
2023-10-23T13:16:53.685Z,76.94
2023-10-23T13:19:24.536Z,76.86
2023-10-23T13:21:56.913Z,77.27
2023-10-23T13:24:28.746Z,77.09
2023-10-23T13:27:01.126Z,77.80
2023-10-23T13:29:33.684Z,78.48
2023-10-23T13:32:05.983Z,78.94
2023-10-23T13:34:38.077Z,78.79
2023-10-23T13:37:09.275Z,77.49
2023-10-23T13:39:41.275Z,77.12
2023-10-23T13:42:13.141Z,77.85
2023-10-23T13:44:45.028Z,77.59
2023-10-23T13:47:18.569Z,78.60
2023-10-23T13:49:50.374Z,78.70
2023-10-23T13:52:22.466Z,78.79
2023-10-23T13:54:54.415Z,78.41
2023-10-23T13:57:26.391Z,77.90
2023-10-23T13:59:58.231Z,78.57
2023-10-23T14:02:30.189Z,77.23
2023-10-23T14:05:02.136Z,76.88
2023-10-23T14:07:34.135Z,77.51
2023-10-23T14:10:07.256Z,78.73
2023-10-23T14:12:39.214Z,78.91
2023-10-23T14:15:12.426Z,77.97
2023-10-23T14:17:44.293Z,77.62
2023-10-23T14:20:16.795Z,78.56
2023-10-23T14:22:48.608Z,78.93
2023-10-23T14:25:20.824Z,79.10
2023-10-23T14:27:52.745Z,78.97
2023-10-23T14:30:24.767Z,77.90
2023-10-23T14:32:57.144Z,76.34
2023-10-23T14:35:32.344Z,75.94
2023-10-23T14:38:05.125Z,76.67
2023-10-23T14:40:37.051Z,76.92
2023-10-23T14:43:09.040Z,76.59
2023-10-23T14:45:41.633Z,76.60
2023-10-23T14:48:13.456Z,77.54
2023-10-23T14:50:45.287Z,78.75
2023-10-23T14:53:17.132Z,79.60
2023-10-23T14:55:49.009Z,79.81
2023-10-23T14:58:21.328Z,81.87
2023-10-23T15:00:53.214Z,82.49
2023-10-23T15:03:25.538Z,83.62
2023-10-23T15:05:57.332Z,83.14
2023-10-23T15:08:29.180Z,83.95
2023-10-23T15:11:01.052Z,85.84
2023-10-23T15:13:33.130Z,85.13
2023-10-23T15:16:05.835Z,86.19
2023-10-23T15:18:36.758Z,86.72
2023-10-23T15:21:09.604Z,89.92
2023-10-23T15:23:42.149Z,91.24
2023-10-23T15:26:14.101Z,91.76
2023-10-23T15:28:45.905Z,91.60
2023-10-23T15:31:20.491Z,91.92
2023-10-23T15:33:52.617Z,93.03
2023-10-23T15:36:24.545Z,93.22
2023-10-23T15:38:56.621Z,93.18
2023-10-23T15:41:28.730Z,93.50
2023-10-23T15:44:00.831Z,94.52
2023-10-23T15:46:32.791Z,95.60
2023-10-23T15:49:04.720Z,96.07
2023-10-23T15:51:36.868Z,97.02
2023-10-23T15:54:09.176Z,97.47
2023-10-23T15:56:43.681Z,98.23
2023-10-23T15:59:15.695Z,97.31
2023-10-23T16:01:47.649Z,98.08
2023-10-23T16:04:19.646Z,98.80
2023-10-23T16:06:51.676Z,99.10
2023-10-23T16:09:27.382Z,99.22
2023-10-23T16:12:09.968Z,99.92
2023-10-23T16:14:55.724Z,99.98
2023-10-23T16:17:29.286Z,100.00
2023-10-23T16:20:01.097Z,100.00
2023-10-23T16:22:33.357Z,99.95
2023-10-23T16:25:06.926Z,100.00
2023-10-23T16:27:38.937Z,100.00
2023-10-23T16:30:13.783Z,100.00
2023-10-23T16:32:46.337Z,100.00
2023-10-23T16:35:17.555Z,100.00
2023-10-23T16:37:49.415Z,100.00
2023-10-23T16:40:25.677Z,100.00
2023-10-23T16:42:57.583Z,99.62
2023-10-23T16:45:30.053Z,99.54
2023-10-23T16:48:03.974Z,99.72
2023-10-23T16:50:36.416Z,99.69
2023-10-23T16:53:08.240Z,99.88
2023-10-23T16:55:40.045Z,100.00
2023-10-23T16:58:14.338Z,100.00
2023-10-23T17:00:46.403Z,100.00
2023-10-23T17:03:18.420Z,100.00
2023-10-23T17:05:51.010Z,100.00
2023-10-23T17:08:22.992Z,100.00
2023-10-23T17:11:03.895Z,100.00
2023-10-23T17:13:35.887Z,100.00
2023-10-23T17:16:08.732Z,100.00
2023-10-23T17:18:39.610Z,100.00
2023-10-23T17:21:11.513Z,100.00
2023-10-23T17:23:44.257Z,100.00
2023-10-23T17:26:17.545Z,100.00
2023-10-23T17:28:51.201Z,100.00
2023-10-23T17:31:23.266Z,100.00
2023-10-23T17:33:55.196Z,100.00
2023-10-23T17:36:30.203Z,100.00
2023-10-23T17:39:02.104Z,100.00
2023-10-23T17:41:34.210Z,100.00
2023-10-23T17:44:06.707Z,100.00
2023-10-23T17:46:38.550Z,100.00
2023-10-23T17:49:10.617Z,100.00
2023-10-23T17:51:42.479Z,100.00
2023-10-23T17:54:16.427Z,100.00
2023-10-23T17:56:48.668Z,100.00
2023-10-23T17:59:20.554Z,100.00
2023-10-23T18:01:52.560Z,100.00
2023-10-23T18:04:24.987Z,100.00
2023-10-23T18:06:57.248Z,100.00
2023-10-23T18:09:29.741Z,100.00
2023-10-23T18:12:01.975Z,100.00
2023-10-23T18:14:35.184Z,100.00
2023-10-23T18:17:08.191Z,100.00
2023-10-23T18:19:40.207Z,100.00
2023-10-23T18:22:12.252Z,100.00
2023-10-23T18:24:44.078Z,100.00
2023-10-23T18:27:16.591Z,100.00
2023-10-23T18:29:48.842Z,100.00
2023-10-23T18:32:20.699Z,100.00
2023-10-23T18:34:54.392Z,100.00
2023-10-23T18:37:26.382Z,100.00
2023-10-23T18:39:58.360Z,100.00
2023-10-23T18:42:32.582Z,100.00
2023-10-23T18:45:06.342Z,100.00
2023-10-23T18:47:39.536Z,100.00
2023-10-23T18:50:12.626Z,100.00
2023-10-23T18:52:44.481Z,100.00
2023-10-23T18:55:16.681Z,100.00
2023-10-23T18:57:48.653Z,100.00
2023-10-23T19:00:22.367Z,100.00
2023-10-23T19:02:54.425Z,100.00
2023-10-23T19:05:26.725Z,100.00
2023-10-23T19:07:58.805Z,100.00
2023-10-23T19:10:31.061Z,100.00
2023-10-23T19:13:03.197Z,100.00
2023-10-23T19:15:35.202Z,100.00
2023-10-23T19:18:07.954Z,100.00
2023-10-23T19:20:40.167Z,100.00
2023-10-23T19:23:12.595Z,100.00
2023-10-23T19:25:51.324Z,100.00
2023-10-23T19:28:23.865Z,100.00
2023-10-23T19:30:57.865Z,100.00
2023-10-23T19:33:30.680Z,100.00
2023-10-23T19:36:03.918Z,100.00
2023-10-23T19:38:37.181Z,100.00
2023-10-23T19:41:15.807Z,100.00
2023-10-23T19:43:50.283Z,100.00
2023-10-23T19:46:23.757Z,100.00
2023-10-23T19:48:56.962Z,100.00
2023-10-23T19:51:30.700Z,100.00
2023-10-23T19:54:04.815Z,100.00
2023-10-23T19:56:39.563Z,100.00
2023-10-23T19:59:11.936Z,100.00
2023-10-23T20:01:44.040Z,100.00
2023-10-23T20:04:16.631Z,100.00
2023-10-23T20:06:48.983Z,100.00
2023-10-23T20:09:21.501Z,100.00
2023-10-23T20:11:53.524Z,100.00
2023-10-23T20:14:25.446Z,100.00
2023-10-23T20:16:57.355Z,100.00
2023-10-23T20:19:29.418Z,100.00
2023-10-23T20:22:04.294Z,100.00
2023-10-23T20:24:36.187Z,100.00
2023-10-23T20:27:08.167Z,100.00
2023-10-23T20:29:40.282Z,100.00
2023-10-23T20:32:13.134Z,100.00
2023-10-23T20:34:44.977Z,100.00
2023-10-23T20:37:16.840Z,100.00
2023-10-23T20:39:48.609Z,100.00
2023-10-23T20:42:20.363Z,100.00
2023-10-23T20:44:55.018Z,100.00
2023-10-23T20:47:26.976Z,100.00
2023-10-23T20:50:00.080Z,100.00
2023-10-23T20:52:33.860Z,100.00
2023-10-23T20:55:07.235Z,100.00
2023-10-23T20:57:39.756Z,100.00
2023-10-23T21:00:13.869Z,100.00
2023-10-23T21:02:45.766Z,100.00
2023-10-23T21:05:18.088Z,100.00
2023-10-23T21:07:49.908Z,100.00
2023-10-23T21:10:22.447Z,100.00
2023-10-23T21:12:54.217Z,100.00
2023-10-23T21:15:26.094Z,100.00
2023-10-23T21:17:58.118Z,100.00
2023-10-23T21:20:30.053Z,100.00
2023-10-23T21:23:02.527Z,100.00
2023-10-23T21:25:34.586Z,100.00
2023-10-23T21:28:06.864Z,100.00
2023-10-23T21:30:39.001Z,100.00
2023-10-23T21:33:10.900Z,100.00
2023-10-23T21:35:42.654Z,100.00
2023-10-23T21:38:14.944Z,100.00
2023-10-23T21:40:49.942Z,100.00
2023-10-23T21:43:21.997Z,100.00
2023-10-23T21:46:15.079Z,100.00
2023-10-23T21:48:45.816Z,100.00
2023-10-23T21:51:17.653Z,100.00
2023-10-23T21:53:50.401Z,100.00
2023-10-23T21:56:38.205Z,100.00
2023-10-23T21:59:19.273Z,100.00
2023-10-23T22:01:53.909Z,100.00
2023-10-23T22:04:27.520Z,100.00
2023-10-23T22:07:00.615Z,100.00
2023-10-23T22:09:35.051Z,100.00
2023-10-23T22:12:11.376Z,100.00
2023-10-23T22:14:43.861Z,100.00
2023-10-23T22:17:15.783Z,100.00
2023-10-23T22:19:47.691Z,100.00
2023-10-23T22:22:19.873Z,100.00
2023-10-23T22:24:51.638Z,100.00
2023-10-23T22:27:23.531Z,100.00
2023-10-23T22:29:55.242Z,100.00
2023-10-23T22:32:27.222Z,100.00
2023-10-23T22:34:59.790Z,100.00
2023-10-23T22:38:00.255Z,100.00
2023-10-23T22:40:23.578Z,100.00
2023-10-23T22:42:54.799Z,100.00
2023-10-23T22:45:26.657Z,100.00
2023-10-23T22:47:58.497Z,100.00
2023-10-23T22:50:31.372Z,100.00
2023-10-23T22:53:04.110Z,100.00
2023-10-23T22:55:37.629Z,100.00
2023-10-23T22:58:13.212Z,100.00
2023-10-23T23:00:46.008Z,100.00
2023-10-23T23:03:18.843Z,100.00
2023-10-23T23:05:50.729Z,100.00
2023-10-23T23:08:26.055Z,100.00
2023-10-23T23:10:58.883Z,100.00
2023-10-23T23:13:29.662Z,100.00
2023-10-23T23:16:05.780Z,100.00
2023-10-23T23:18:40.787Z,100.00
2023-10-23T23:21:14.366Z,100.00
2023-10-23T23:23:46.377Z,100.00
2023-10-23T23:26:18.714Z,100.00
2023-10-23T23:28:50.401Z,100.00
2023-10-23T23:31:22.212Z,100.00
2023-10-23T23:33:54.928Z,100.00
2023-10-23T23:36:26.612Z,100.00
2023-10-23T23:38:58.712Z,100.00
2023-10-23T23:41:30.872Z,100.00
2023-10-23T23:44:02.914Z,100.00
2023-10-23T23:46:34.703Z,100.00
2023-10-23T23:49:06.691Z,100.00
2023-10-23T23:51:38.515Z,100.00
2023-10-23T23:54:10.343Z,100.00
2023-10-23T23:56:42.711Z,100.00
2023-10-23T23:59:14.475Z,100.00
